createdAt,value
2022-09-23T00:01:22.576Z,9.95
2022-09-23T00:03:50.347Z,8.13
2022-09-23T00:06:23.110Z,7.88
2022-09-23T00:08:52.584Z,7.97
2022-09-23T00:11:27.897Z,8.80
2022-09-23T00:13:59.921Z,6.93
2022-09-23T00:16:34.233Z,11.45
2022-09-23T00:19:04.329Z,8.10
2022-09-23T00:21:31.828Z,8.48
2022-09-23T00:23:59.417Z,9.77
2022-09-23T00:26:27.623Z,7.95
2022-09-23T00:28:55.135Z,8.38
2022-09-23T00:31:27.407Z,9.20
2022-09-23T00:34:00.762Z,9.52
2022-09-23T00:36:30.425Z,10.15
2022-09-23T00:38:58.200Z,10.50
2022-09-23T00:41:26.253Z,8.88
2022-09-23T00:49:24.970Z,12.80
2022-09-23T00:52:07.721Z,7.50
2022-09-23T00:54:38.108Z,11.18
2022-09-23T00:57:06.918Z,9.23
2022-09-23T00:59:36.665Z,7.10
2022-09-23T01:02:13.117Z,9.48
2022-09-23T01:04:41.068Z,8.52
2022-09-23T01:07:08.509Z,9.15
2022-09-23T01:09:36.894Z,9.60
2022-09-23T01:30:09.112Z,8.15
2022-09-23T01:33:04.754Z,8.60
2022-09-23T01:44:10.074Z,10.63
2022-09-23T01:52:07.808Z,9.88
2022-09-23T01:57:41.100Z,15.57
2022-09-23T02:00:18.045Z,12.38
2022-09-23T02:03:05.076Z,13.82
2022-09-23T02:05:43.961Z,10.73
2022-09-23T02:08:22.182Z,10.93
2022-09-23T02:10:58.731Z,11.57
2022-09-23T02:13:57.849Z,10.20
2022-09-23T02:16:39.892Z,10.43
2022-09-23T02:19:18.312Z,11.95
2022-09-23T02:21:57.692Z,9.55
2022-09-23T02:24:32.804Z,9.30
2022-09-23T02:33:18.562Z,10.00
2022-09-23T02:36:00.190Z,11.70
2022-09-23T02:38:45.952Z,13.32
2022-09-23T02:44:17.190Z,9.60
2022-09-23T02:46:45.278Z,10.63
2022-09-23T02:51:53.276Z,9.80
2022-09-23T02:54:25.870Z,11.63
2022-09-23T02:56:54.353Z,7.80
2022-09-23T02:59:27.978Z,9.45
2022-09-23T03:02:36.293Z,8.13
2022-09-23T03:22:10.808Z,11.25
2022-09-23T03:24:44.994Z,9.70
2022-09-23T03:27:23.473Z,10.27
2022-09-23T03:29:54.598Z,10.05
2022-09-23T03:32:35.397Z,9.63
2022-09-23T03:35:06.622Z,10.85
2022-09-23T03:37:57.114Z,11.98
2022-09-23T03:40:43.112Z,10.70
2022-09-23T03:43:13.529Z,10.27
2022-09-23T03:45:42.775Z,11.05
2022-09-23T03:48:10.697Z,14.52
2022-09-23T03:50:41.168Z,12.80
2022-09-23T03:53:08.759Z,12.68
2022-09-23T03:55:39.575Z,10.90
2022-09-23T03:58:08.207Z,10.32
2022-09-23T04:00:36.386Z,9.07
2022-09-23T04:03:07.196Z,9.48
2022-09-23T04:05:38.592Z,12.30
2022-09-23T04:08:06.652Z,10.15
2022-09-23T04:10:34.439Z,11.45
2022-09-23T04:13:09.884Z,9.98
2022-09-23T04:15:38.285Z,9.73
2022-09-23T04:18:06.174Z,10.50
2022-09-23T04:20:34.326Z,10.73
2022-09-23T04:23:02.417Z,11.48
2022-09-23T04:25:31.915Z,12.93
2022-09-23T04:28:00.077Z,12.18
2022-09-23T04:30:27.775Z,12.13
2022-09-23T04:32:55.727Z,11.48
2022-09-23T04:35:23.260Z,15.48
2022-09-23T04:37:50.714Z,10.20
2022-09-23T04:40:19.461Z,12.05
2022-09-23T04:42:47.634Z,15.48
2022-09-23T04:45:15.694Z,12.15
2022-09-23T04:47:43.499Z,12.57
2022-09-23T04:50:13.592Z,13.60
2022-09-23T04:52:41.461Z,12.90
2022-09-23T04:55:14.546Z,11.75
2022-09-23T04:57:42.776Z,11.95
2022-09-23T05:00:15.347Z,16.15
2022-09-23T05:02:48.289Z,12.85
2022-09-23T05:05:21.488Z,14.32
2022-09-23T05:07:53.894Z,13.43
2022-09-23T05:10:25.198Z,11.82
2022-09-23T05:12:57.015Z,14.35
2022-09-23T05:15:31.033Z,13.50
2022-09-23T05:18:02.979Z,11.32
2022-09-23T05:20:31.472Z,11.18
2022-09-23T05:23:00.542Z,12.88
2022-09-23T05:25:40.316Z,11.35
2022-09-23T05:28:13.431Z,12.60
2022-09-23T05:30:46.171Z,12.30
2022-09-23T05:33:16.994Z,14.38
2022-09-23T05:35:48.870Z,11.85
2022-09-23T05:38:18.002Z,12.48
2022-09-23T05:40:51.989Z,13.50
2022-09-23T05:43:23.286Z,10.40
2022-09-23T05:46:14.162Z,14.02
2022-09-23T05:48:47.906Z,13.63
2022-09-23T05:51:30.642Z,13.82
2022-09-23T05:54:07.218Z,16.73
2022-09-23T05:56:38.325Z,13.23
2022-09-23T05:59:06.983Z,16.70
2022-09-23T06:01:38.574Z,13.52
2022-09-23T06:04:12.954Z,16.55
2022-09-23T06:06:43.052Z,12.50
2022-09-23T06:09:15.102Z,16.48
2022-09-23T06:11:43.416Z,12.95
2022-09-23T06:14:14.965Z,12.65
2022-09-23T06:16:43.202Z,15.85
2022-09-23T06:19:10.813Z,15.25
2022-09-23T06:21:40.833Z,13.07
2022-09-23T06:24:11.168Z,16.08
2022-09-23T06:26:40.863Z,23.65
2022-09-23T06:29:12.315Z,18.40
2022-09-23T06:31:42.139Z,15.02
2022-09-23T06:34:14.673Z,12.23
2022-09-23T06:36:45.896Z,15.43
2022-09-23T06:39:15.962Z,11.73
2022-09-23T06:41:45.140Z,13.70
2022-09-23T06:44:15.088Z,13.65
2022-09-23T06:46:43.274Z,10.13
2022-09-23T06:49:13.413Z,8.73
2022-09-23T06:51:41.473Z,12.77
2022-09-23T06:54:09.365Z,9.50
2022-09-23T06:56:39.515Z,8.88
2022-09-23T06:59:10.971Z,18.17
2022-09-23T07:01:38.999Z,13.85
2022-09-23T07:04:07.474Z,11.63
2022-09-23T07:06:36.105Z,7.40
2022-09-23T07:09:07.218Z,11.82
2022-09-23T07:11:34.876Z,9.43
2022-09-23T07:14:06.237Z,11.00
2022-09-23T07:16:36.655Z,9.63
2022-09-23T07:19:08.643Z,9.80
2022-09-23T07:21:36.865Z,9.18
2022-09-23T07:24:05.477Z,10.85
2022-09-23T07:26:34.681Z,8.93
2022-09-23T07:29:05.069Z,8.40
2022-09-23T07:31:40.033Z,6.82
2022-09-23T07:34:11.579Z,11.73
2022-09-23T07:36:41.053Z,8.43
2022-09-23T07:39:12.786Z,9.63
2022-09-23T07:41:44.744Z,8.20
2022-09-23T07:44:12.871Z,9.43
2022-09-23T07:46:41.086Z,8.52
2022-09-23T07:49:11.675Z,8.93
2022-09-23T07:51:45.930Z,10.93
2022-09-23T07:54:17.070Z,9.40
2022-09-23T07:56:47.450Z,8.10
2022-09-23T07:59:19.714Z,6.72
2022-09-23T08:01:54.038Z,6.55
2022-09-23T08:04:29.185Z,8.25
2022-09-23T08:07:04.726Z,8.98
2022-09-23T08:09:42.797Z,7.50
2022-09-23T08:12:16.572Z,7.20
2022-09-23T08:14:44.890Z,7.15
2022-09-23T08:17:16.076Z,6.57
2022-09-23T08:19:43.594Z,6.72
2022-09-23T08:22:12.257Z,7.17
2022-09-23T08:24:39.891Z,8.30
2022-09-23T08:27:07.312Z,7.57
2022-09-23T08:29:34.922Z,10.48
2022-09-23T08:32:02.678Z,8.32
2022-09-23T08:34:30.010Z,7.88
2022-09-23T08:36:57.550Z,5.65
2022-09-23T08:39:24.915Z,5.85
2022-09-23T08:50:18.846Z,7.30
2022-09-23T08:53:11.754Z,6.72
2022-09-23T08:55:48.536Z,8.05
2022-09-23T09:04:05.769Z,4.30
2022-09-23T09:06:52.907Z,6.30
2022-09-23T09:09:36.685Z,4.68
2022-09-23T09:15:29.262Z,8.25
2022-09-23T09:23:34.999Z,6.57
2022-09-23T09:26:04.477Z,4.78
2022-09-23T09:28:49.181Z,6.25
2022-09-23T09:37:25.236Z,5.10
2022-09-23T09:39:52.785Z,4.70
2022-09-23T09:42:35.083Z,5.65
2022-09-23T09:45:57.532Z,4.68
2022-09-23T09:48:59.977Z,5.72
2022-09-23T09:51:29.291Z,8.07
2022-09-23T09:54:23.151Z,4.65
2022-09-23T09:56:52.751Z,5.88
2022-09-23T09:59:29.958Z,6.22
2022-09-23T10:05:03.882Z,6.43
2022-09-23T10:07:34.153Z,5.32
2022-09-23T10:10:33.704Z,6.90
2022-09-23T10:13:17.650Z,5.50
2022-09-23T10:15:46.014Z,4.45
2022-09-23T10:21:18.003Z,4.00
2022-09-23T10:23:52.552Z,5.30
2022-09-23T10:26:50.678Z,5.85
2022-09-23T10:47:04.913Z,7.10
2022-09-23T10:50:03.525Z,5.82
2022-09-23T11:11:19.845Z,5.68
2022-09-23T11:36:42.625Z,5.68
2022-09-23T11:39:20.550Z,5.15
2022-09-23T11:41:52.558Z,6.05
2022-09-23T11:44:34.059Z,4.32
2022-09-23T11:49:59.332Z,5.10
2022-09-23T11:52:41.446Z,5.40
2022-09-23T11:55:23.352Z,4.22
2022-09-23T12:00:49.306Z,4.85
2022-09-23T12:06:22.857Z,4.18
2022-09-23T12:09:02.881Z,6.55
2022-09-23T12:12:05.212Z,4.20
2022-09-23T12:28:37.658Z,3.50
2022-09-23T12:31:13.053Z,5.10
2022-09-23T12:33:44.515Z,5.43
2022-09-23T12:36:12.650Z,4.68
2022-09-23T12:46:48.428Z,4.10
2022-09-23T12:54:51.572Z,4.68
2022-09-23T13:05:46.626Z,4.65
2022-09-23T13:08:25.073Z,7.82
2022-09-23T13:11:01.155Z,5.10
2022-09-23T13:16:38.530Z,5.25
2022-09-23T13:24:48.807Z,6.63
2022-09-23T13:30:07.757Z,4.18
2022-09-23T13:32:45.374Z,6.57
2022-09-23T13:37:51.437Z,8.35
2022-09-23T13:40:29.920Z,5.32
2022-09-23T13:45:43.481Z,5.45
2022-09-23T13:48:15.587Z,5.63
2022-09-23T13:50:50.658Z,7.30
2022-09-23T13:53:31.496Z,5.50
2022-09-23T13:56:18.468Z,4.97
2022-09-23T13:58:45.775Z,4.20
2022-09-23T14:01:35.256Z,6.72
2022-09-23T14:04:02.874Z,4.72
2022-09-23T14:06:32.088Z,4.65
2022-09-23T14:09:02.665Z,4.28
2022-09-23T14:11:35.328Z,4.93
2022-09-23T14:14:07.358Z,4.03
2022-09-23T14:16:40.813Z,7.05
2022-09-23T14:19:18.753Z,7.47
2022-09-23T14:21:53.570Z,6.43
2022-09-23T14:24:32.550Z,4.30
2022-09-23T14:27:16.393Z,4.20
2022-09-23T14:29:48.167Z,5.95
2022-09-23T14:32:24.456Z,4.97
2022-09-23T14:40:32.778Z,5.05
2022-09-23T14:43:25.936Z,4.72
2022-09-23T14:45:58.101Z,6.50
2022-09-23T14:48:33.299Z,7.00
2022-09-23T14:51:10.790Z,6.25
2022-09-23T14:53:46.457Z,4.95
2022-09-23T14:59:00.747Z,8.48
2022-09-23T15:07:17.828Z,5.40
2022-09-23T15:09:46.274Z,6.25
2022-09-23T15:14:56.956Z,6.47
2022-09-23T15:20:08.697Z,5.70
2022-09-23T15:22:55.685Z,8.10
2022-09-23T15:25:43.348Z,7.15
2022-09-23T15:30:50.767Z,8.07
2022-09-23T15:33:18.545Z,7.38
2022-09-23T15:35:49.455Z,4.68
2022-09-23T15:38:18.022Z,6.78
2022-09-23T15:40:45.430Z,7.82
2022-09-23T15:43:22.505Z,5.95
2022-09-23T15:46:06.831Z,6.05
2022-09-23T15:48:56.391Z,5.20
2022-09-23T15:51:28.378Z,5.68
2022-09-23T15:53:56.382Z,7.93
2022-09-23T15:56:27.079Z,5.55
2022-09-23T15:58:54.704Z,6.47
2022-09-23T16:01:35.986Z,6.38
2022-09-23T16:04:05.020Z,8.52
2022-09-23T16:06:36.001Z,6.75
2022-09-23T16:09:04.037Z,5.70
2022-09-23T16:11:32.757Z,6.25
2022-09-23T16:14:00.799Z,5.00
2022-09-23T16:16:28.608Z,5.03
2022-09-23T16:18:56.011Z,7.18
2022-09-23T16:21:28.696Z,5.93
2022-09-23T16:23:59.157Z,6.35
2022-09-23T16:26:36.893Z,6.75
2022-09-23T16:29:04.531Z,8.65
2022-09-23T16:31:32.274Z,5.47
2022-09-23T16:34:02.492Z,8.20
2022-09-23T16:39:12.857Z,6.70
2022-09-23T16:41:42.830Z,7.72
2022-09-23T16:44:12.583Z,6.03
2022-09-23T16:46:42.935Z,7.15
2022-09-23T16:49:12.140Z,6.15
2022-09-23T16:51:40.865Z,5.88
2022-09-23T16:54:12.255Z,6.32
2022-09-23T16:56:44.372Z,5.00
2022-09-23T16:59:15.939Z,5.65
2022-09-23T17:02:08.316Z,8.05
2022-09-23T17:04:36.019Z,6.65
2022-09-23T17:07:03.410Z,5.15
2022-09-23T17:09:32.064Z,5.70
2022-09-23T17:12:28.667Z,8.32
2022-09-23T17:15:09.707Z,7.53
2022-09-23T17:17:41.611Z,7.00
2022-09-23T17:20:29.368Z,5.50
2022-09-23T17:22:56.631Z,6.15
2022-09-23T17:25:24.781Z,7.68
2022-09-23T17:27:53.032Z,8.30
2022-09-23T17:30:20.478Z,6.10
2022-09-23T17:32:48.634Z,9.63
2022-09-23T17:35:17.130Z,7.40
2022-09-23T17:37:46.437Z,6.88
2022-09-23T17:40:14.370Z,7.15
2022-09-23T17:42:42.536Z,6.30
2022-09-23T17:45:12.523Z,7.50
2022-09-23T17:47:41.896Z,8.13
2022-09-23T17:50:09.835Z,8.65
2022-09-23T17:52:37.243Z,9.55
2022-09-23T17:55:05.547Z,9.93
2022-09-23T17:57:32.908Z,10.63
2022-09-23T18:00:00.671Z,10.25
2022-09-23T18:02:28.517Z,11.65
2022-09-23T18:04:56.063Z,9.00
2022-09-23T18:07:23.634Z,10.88
2022-09-23T18:09:50.976Z,7.93
2022-09-23T18:12:18.407Z,6.95
2022-09-23T18:14:54.368Z,7.35
2022-09-23T18:17:21.800Z,9.75
2022-09-23T18:19:49.619Z,11.63
2022-09-23T18:22:17.087Z,8.38
2022-09-23T18:24:44.704Z,9.48
2022-09-23T18:27:12.412Z,21.80
2022-09-23T18:29:39.721Z,28.90
2022-09-23T18:32:09.926Z,10.88
2022-09-23T18:34:39.454Z,10.13
2022-09-23T18:37:15.379Z,9.18
2022-09-23T18:39:44.694Z,8.05
2022-09-23T18:42:12.388Z,7.40
2022-09-23T18:44:40.154Z,10.45
2022-09-23T18:47:07.470Z,7.07
2022-09-23T18:49:54.686Z,9.07
2022-09-23T18:52:21.993Z,8.93
2022-09-23T18:54:54.364Z,8.93
2022-09-23T18:57:22.630Z,11.25
2022-09-23T18:59:50.425Z,14.05
2022-09-23T19:02:18.058Z,12.05
2022-09-23T19:04:45.838Z,11.07
2022-09-23T19:07:13.290Z,11.43
2022-09-23T19:09:45.049Z,10.70
2022-09-23T19:12:27.453Z,13.90
2022-09-23T19:15:22.637Z,11.00
2022-09-23T19:17:50.256Z,10.43
2022-09-23T19:20:17.690Z,11.32
2022-09-23T19:22:48.088Z,13.90
2022-09-23T19:25:17.402Z,13.27
2022-09-23T19:27:44.976Z,9.85
2022-09-23T19:30:13.466Z,11.48
2022-09-23T19:32:44.577Z,10.25
2022-09-23T19:35:15.867Z,10.98
2022-09-23T19:37:46.043Z,8.90
2022-09-23T19:40:13.891Z,10.75
2022-09-23T19:42:43.102Z,9.63
2022-09-23T19:45:10.698Z,9.32
2022-09-23T19:47:38.178Z,10.73
2022-09-23T19:54:10.507Z,9.93
2022-09-23T19:56:38.693Z,9.10
2022-09-23T19:59:07.461Z,11.07
2022-09-23T20:01:36.031Z,11.70
2022-09-23T20:04:05.651Z,11.75
2022-09-23T20:06:38.008Z,13.77
2022-09-23T20:09:06.042Z,11.60
2022-09-23T20:11:34.582Z,10.00
2022-09-23T20:14:04.930Z,12.73
2022-09-23T20:16:36.877Z,12.55
2022-09-23T20:19:06.070Z,13.60
2022-09-23T20:21:35.317Z,18.58
2022-09-23T20:24:06.475Z,16.27
2022-09-23T20:26:54.005Z,9.95
2022-09-23T20:29:21.733Z,13.65
2022-09-23T20:31:49.307Z,12.02
2022-09-23T20:34:16.828Z,18.95
2022-09-23T20:36:44.262Z,19.02
2022-09-23T20:39:11.742Z,14.02
2022-09-23T20:41:39.874Z,14.63
2022-09-23T20:44:12.661Z,13.07
2022-09-23T20:46:48.192Z,11.85
2022-09-23T20:49:17.947Z,14.32
2022-09-23T20:51:48.835Z,14.35
2022-09-23T20:54:21.186Z,11.60
2022-09-23T20:56:48.683Z,11.27
2022-09-23T20:59:17.738Z,13.35
2022-09-23T21:01:47.455Z,12.00
2022-09-23T21:04:15.486Z,10.45
2022-09-23T21:06:42.833Z,8.70
2022-09-23T21:09:10.168Z,11.80
2022-09-23T21:11:38.141Z,9.75
2022-09-23T21:14:05.755Z,11.50
2022-09-23T21:16:33.126Z,9.70
2022-09-23T21:19:03.081Z,9.73
2022-09-23T21:21:30.701Z,9.40
2022-09-23T21:24:17.143Z,12.25
2022-09-23T21:26:47.873Z,11.07
2022-09-23T21:29:15.261Z,9.80
2022-09-23T21:31:42.956Z,10.27
2022-09-23T21:34:12.578Z,10.80
2022-09-23T21:36:44.057Z,9.43
2022-09-23T21:39:12.636Z,9.60
2022-09-23T21:41:40.388Z,9.65
2022-09-23T21:44:08.421Z,7.30
2022-09-23T21:46:36.781Z,9.57
2022-09-23T21:49:05.237Z,8.43
2022-09-23T21:51:40.219Z,8.85
2022-09-23T21:54:15.445Z,6.65
2022-09-23T21:56:44.342Z,7.57
2022-09-23T21:59:12.104Z,8.07
2022-09-23T22:01:44.844Z,7.32
2022-09-23T22:04:18.631Z,10.18
2022-09-23T22:06:48.719Z,13.10
2022-09-23T22:09:20.978Z,6.90
2022-09-23T22:12:08.422Z,10.52
2022-09-23T22:14:36.874Z,8.55
2022-09-23T22:17:10.283Z,9.02
2022-09-23T22:19:45.834Z,8.23
2022-09-23T22:22:17.677Z,7.88
2022-09-23T22:24:47.351Z,8.65
2022-09-23T22:27:18.685Z,8.43
2022-09-23T22:30:05.899Z,8.88
2022-09-23T22:32:40.422Z,8.85
2022-09-23T22:35:14.061Z,13.63
2022-09-23T22:37:41.311Z,8.73
2022-09-23T22:40:14.878Z,10.25
2022-09-23T22:42:43.325Z,8.57
2022-09-23T22:45:12.699Z,27.23
2022-09-23T22:47:44.006Z,13.60
2022-09-23T22:50:13.797Z,11.93
2022-09-23T22:52:41.190Z,9.45
2022-09-23T22:55:09.536Z,9.95
2022-09-23T22:57:37.185Z,8.88
2022-09-23T23:00:07.860Z,9.50
2022-09-23T23:02:35.192Z,13.02
2022-09-23T23:05:02.574Z,11.73
2022-09-23T23:07:29.779Z,11.38
2022-09-23T23:09:57.505Z,11.60
2022-09-23T23:12:24.748Z,13.15
2022-09-23T23:14:54.785Z,9.80
2022-09-23T23:17:21.983Z,12.23
2022-09-23T23:19:50.487Z,10.50
2022-09-23T23:22:17.822Z,11.80
2022-09-23T23:24:45.285Z,12.55
2022-09-23T23:27:15.199Z,13.32
2022-09-23T23:29:42.474Z,13.02
2022-09-23T23:32:15.581Z,13.65
2022-09-23T23:34:43.360Z,13.57
2022-09-23T23:37:10.907Z,13.35
2022-09-23T23:39:38.212Z,15.07
2022-09-23T23:42:05.761Z,14.35
2022-09-23T23:44:34.306Z,12.65
2022-09-23T23:47:01.786Z,12.93
2022-09-23T23:49:29.060Z,15.18
2022-09-23T23:51:56.544Z,11.85
2022-09-23T23:54:23.839Z,14.40
2022-09-23T23:56:51.206Z,12.52
2022-09-23T23:59:20.775Z,11.73
